sensor_id;sensor_type;location;lat;lon;timestamp;pressure;altitude;pressure_sealevel;temperature;humidity
79370;BME280;68835;53.096;17.932;2023-06-22T00:00:02;101065.77;;;19.09;79.36
79370;BME280;68835;53.096;17.932;2023-06-22T00:02:59;101073.23;;;19.10;79.16
79370;BME280;68835;53.096;17.932;2023-06-22T00:05:26;101076.08;;;19.08;79.16
79370;BME280;68835;53.096;17.932;2023-06-22T00:07:54;101083.02;;;19.07;79.07
79370;BME280;68835;53.096;17.932;2023-06-22T00:10:21;101087.45;;;19.06;79.53
79370;BME280;68835;53.096;17.932;2023-06-22T00:12:48;101086.85;;;19.01;79.33
79370;BME280;68835;53.096;17.932;2023-06-22T00:15:15;101087.38;;;19.01;79.42
79370;BME280;68835;53.096;17.932;2023-06-22T00:17:42;101082.95;;;19.02;79.43
79370;BME280;68835;53.096;17.932;2023-06-22T00:20:10;101086.66;;;19.01;79.55
79370;BME280;68835;53.096;17.932;2023-06-22T00:22:37;101086.54;;;18.99;79.55
79370;BME280;68835;53.096;17.932;2023-06-22T00:25:07;101086.48;;;19.01;79.51
79370;BME280;68835;53.096;17.932;2023-06-22T00:27:35;101088.20;;;19.04;79.77
79370;BME280;68835;53.096;17.932;2023-06-22T00:30:03;101093.96;;;19.00;79.83
79370;BME280;68835;53.096;17.932;2023-06-22T00:32:30;101100.03;;;18.98;79.87
79370;BME280;68835;53.096;17.932;2023-06-22T00:34:57;101100.73;;;18.99;79.72
79370;BME280;68835;53.096;17.932;2023-06-22T00:37:25;101101.69;;;18.95;79.82
79370;BME280;68835;53.096;17.932;2023-06-22T00:39:53;101101.56;;;18.92;79.93
79370;BME280;68835;53.096;17.932;2023-06-22T00:42:21;101101.60;;;18.91;80.22
79370;BME280;68835;53.096;17.932;2023-06-22T00:44:48;101101.45;;;18.88;80.12
79370;BME280;68835;53.096;17.932;2023-06-22T00:47:17;101103.08;;;18.88;80.36
79370;BME280;68835;53.096;17.932;2023-06-22T00:49:45;101101.80;;;18.89;80.25
79370;BME280;68835;53.096;17.932;2023-06-22T00:52:15;101103.78;;;18.87;80.28
79370;BME280;68835;53.096;17.932;2023-06-22T00:54:48;101102.54;;;18.88;80.44
79370;BME280;68835;53.096;17.932;2023-06-22T00:57:17;101103.69;;;18.83;80.30
79370;BME280;68835;53.096;17.932;2023-06-22T00:59:48;101104.74;;;18.74;80.33
79370;BME280;68835;53.096;17.932;2023-06-22T01:02:15;101105.73;;;18.67;80.26
79370;BME280;68835;53.096;17.932;2023-06-22T01:04:42;101110.33;;;18.66;80.46
79370;BME280;68835;53.096;17.932;2023-06-22T01:07:35;101113.60;;;18.62;80.41
79370;BME280;68835;53.096;17.932;2023-06-22T01:10:16;101112.46;;;18.56;80.18
79370;BME280;68835;53.096;17.932;2023-06-22T01:12:50;101114.15;;;18.50;80.38
79370;BME280;68835;53.096;17.932;2023-06-22T01:15:27;101111.44;;;18.43;80.21
79370;BME280;68835;53.096;17.932;2023-06-22T01:17:57;101110.15;;;18.35;80.31
79370;BME280;68835;53.096;17.932;2023-06-22T01:20:27;101111.45;;;18.32;80.17
79370;BME280;68835;53.096;17.932;2023-06-22T01:23:20;101109.90;;;18.28;79.75
79370;BME280;68835;53.096;17.932;2023-06-22T01:28:50;101110.89;;;18.22;80.14
79370;BME280;68835;53.096;17.932;2023-06-22T01:31:20;101110.95;;;18.18;79.95
79370;BME280;68835;53.096;17.932;2023-06-22T01:33:51;101115.10;;;18.14;79.74
79370;BME280;68835;53.096;17.932;2023-06-22T01:36:21;101119.73;;;18.11;79.79
79370;BME280;68835;53.096;17.932;2023-06-22T01:38:50;101117.29;;;18.09;79.80
79370;BME280;68835;53.096;17.932;2023-06-22T01:41:20;101111.09;;;18.09;79.70
79370;BME280;68835;53.096;17.932;2023-06-22T01:43:48;101111.30;;;18.07;79.78
79370;BME280;68835;53.096;17.932;2023-06-22T01:46:16;101110.30;;;18.03;79.78
79370;BME280;68835;53.096;17.932;2023-06-22T01:48:47;101110.94;;;17.95;79.72
79370;BME280;68835;53.096;17.932;2023-06-22T01:51:15;101115.14;;;17.86;79.71
79370;BME280;68835;53.096;17.932;2023-06-22T01:53:42;101112.03;;;17.80;79.62
79370;BME280;68835;53.096;17.932;2023-06-22T01:56:09;101111.73;;;17.76;79.82
79370;BME280;68835;53.096;17.932;2023-06-22T01:58:41;101113.38;;;17.70;79.68
79370;BME280;68835;53.096;17.932;2023-06-22T02:01:12;101114.91;;;17.62;79.73
79370;BME280;68835;53.096;17.932;2023-06-22T02:03:55;101114.45;;;17.57;79.83
79370;BME280;68835;53.096;17.932;2023-06-22T02:06:27;101115.24;;;17.49;79.86
79370;BME280;68835;53.096;17.932;2023-06-22T02:09:00;101112.56;;;17.37;80.03
79370;BME280;68835;53.096;17.932;2023-06-22T02:11:29;101114.21;;;17.32;79.98
79370;BME280;68835;53.096;17.932;2023-06-22T02:13:57;101111.95;;;17.29;80.20
79370;BME280;68835;53.096;17.932;2023-06-22T02:16:26;101116.60;;;17.24;80.22
79370;BME280;68835;53.096;17.932;2023-06-22T02:18:56;101124.10;;;17.18;80.47
79370;BME280;68835;53.096;17.932;2023-06-22T02:21:30;101128.95;;;17.10;80.65
79370;BME280;68835;53.096;17.932;2023-06-22T02:23:58;101128.66;;;17.05;80.98
79370;BME280;68835;53.096;17.932;2023-06-22T02:26:26;101135.21;;;17.03;81.31
79370;BME280;68835;53.096;17.932;2023-06-22T02:28:54;101142.84;;;17.02;81.35
79370;BME280;68835;53.096;17.932;2023-06-22T02:31:21;101142.16;;;16.99;81.26
79370;BME280;68835;53.096;17.932;2023-06-22T02:33:48;101140.07;;;16.97;81.54
79370;BME280;68835;53.096;17.932;2023-06-22T02:36:19;101145.02;;;16.96;81.15
79370;BME280;68835;53.096;17.932;2023-06-22T02:38:49;101142.36;;;16.98;80.76
79370;BME280;68835;53.096;17.932;2023-06-22T02:41:17;101143.75;;;16.99;80.63
79370;BME280;68835;53.096;17.932;2023-06-22T02:43:45;101142.52;;;17.00;80.52
79370;BME280;68835;53.096;17.932;2023-06-22T02:46:13;101136.33;;;16.99;80.35
79370;BME280;68835;53.096;17.932;2023-06-22T02:48:41;101140.24;;;16.97;80.27
79370;BME280;68835;53.096;17.932;2023-06-22T02:51:09;101149.79;;;16.96;80.09
79370;BME280;68835;53.096;17.932;2023-06-22T02:53:37;101149.95;;;16.98;79.91
79370;BME280;68835;53.096;17.932;2023-06-22T02:56:04;101143.22;;;16.99;79.96
79370;BME280;68835;53.096;17.932;2023-06-22T02:58:37;101141.63;;;16.99;79.69
79370;BME280;68835;53.096;17.932;2023-06-22T03:01:08;101142.00;;;16.98;79.75
79370;BME280;68835;53.096;17.932;2023-06-22T03:03:37;101146.27;;;16.96;80.03
79370;BME280;68835;53.096;17.932;2023-06-22T03:06:04;101157.94;;;16.95;79.97
79370;BME280;68835;53.096;17.932;2023-06-22T03:08:31;101163.09;;;16.94;79.70
79370;BME280;68835;53.096;17.932;2023-06-22T03:10:59;101164.33;;;16.92;79.51
79370;BME280;68835;53.096;17.932;2023-06-22T03:13:27;101165.60;;;16.89;79.76
79370;BME280;68835;53.096;17.932;2023-06-22T03:15:54;101168.09;;;16.86;79.84
79370;BME280;68835;53.096;17.932;2023-06-22T03:18:21;101170.59;;;16.84;80.10
79370;BME280;68835;53.096;17.932;2023-06-22T03:20:49;101174.66;;;16.85;80.14
79370;BME280;68835;53.096;17.932;2023-06-22T03:23:16;101173.21;;;16.87;79.96
79370;BME280;68835;53.096;17.932;2023-06-22T03:25:44;101173.39;;;16.86;80.10
79370;BME280;68835;53.096;17.932;2023-06-22T03:28:11;101174.12;;;16.85;80.35
79370;BME280;68835;53.096;17.932;2023-06-22T03:30:39;101174.48;;;16.84;80.26
79370;BME280;68835;53.096;17.932;2023-06-22T03:33:06;101179.79;;;16.85;80.23
79370;BME280;68835;53.096;17.932;2023-06-22T03:35:34;101178.51;;;16.87;79.89
79370;BME280;68835;53.096;17.932;2023-06-22T03:38:02;101180.61;;;16.91;79.97
79370;BME280;68835;53.096;17.932;2023-06-22T03:40:31;101185.01;;;16.91;79.82
79370;BME280;68835;53.096;17.932;2023-06-22T03:42:59;101186.96;;;16.91;79.74
79370;BME280;68835;53.096;17.932;2023-06-22T03:45:26;101196.34;;;16.91;79.96
79370;BME280;68835;53.096;17.932;2023-06-22T03:47:53;101199.88;;;16.92;79.85
79370;BME280;68835;53.096;17.932;2023-06-22T03:50:21;101196.66;;;16.94;79.63
79370;BME280;68835;53.096;17.932;2023-06-22T03:52:48;101199.48;;;16.95;79.52
79370;BME280;68835;53.096;17.932;2023-06-22T03:55:15;101196.45;;;16.96;79.58
79370;BME280;68835;53.096;17.932;2023-06-22T03:57:42;101199.30;;;16.97;79.74
79370;BME280;68835;53.096;17.932;2023-06-22T04:00:09;101197.48;;;17.01;79.60
79370;BME280;68835;53.096;17.932;2023-06-22T04:02:41;101197.46;;;17.03;79.45
79370;BME280;68835;53.096;17.932;2023-06-22T04:05:09;101198.34;;;17.04;79.57
79370;BME280;68835;53.096;17.932;2023-06-22T04:07:36;101201.35;;;17.05;79.25
79370;BME280;68835;53.096;17.932;2023-06-22T04:10:04;101209.12;;;17.05;79.26
79370;BME280;68835;53.096;17.932;2023-06-22T04:12:32;101205.92;;;17.06;79.42
79370;BME280;68835;53.096;17.932;2023-06-22T04:14:59;101202.88;;;17.10;79.27
79370;BME280;68835;53.096;17.932;2023-06-22T04:17:26;101203.36;;;17.15;79.17
79370;BME280;68835;53.096;17.932;2023-06-22T04:19:53;101209.19;;;17.17;79.27
79370;BME280;68835;53.096;17.932;2023-06-22T04:22:20;101207.04;;;17.18;79.19
79370;BME280;68835;53.096;17.932;2023-06-22T04:24:47;101208.27;;;17.21;79.16
79370;BME280;68835;53.096;17.932;2023-06-22T04:27:14;101199.39;;;17.24;79.13
79370;BME280;68835;53.096;17.932;2023-06-22T04:29:41;101199.52;;;17.28;79.17
79370;BME280;68835;53.096;17.932;2023-06-22T04:32:15;101197.02;;;17.30;78.93
79370;BME280;68835;53.096;17.932;2023-06-22T04:34:43;101194.49;;;17.34;79.05
79370;BME280;68835;53.096;17.932;2023-06-22T04:37:11;101197.28;;;17.39;78.98
79370;BME280;68835;53.096;17.932;2023-06-22T04:39:42;101196.71;;;17.42;78.82
79370;BME280;68835;53.096;17.932;2023-06-22T04:42:12;101196.34;;;17.45;78.53
79370;BME280;68835;53.096;17.932;2023-06-22T04:44:39;101202.29;;;17.50;78.50
79370;BME280;68835;53.096;17.932;2023-06-22T04:47:08;101208.42;;;17.55;78.39
79370;BME280;68835;53.096;17.932;2023-06-22T04:49:36;101209.44;;;17.59;78.24
79370;BME280;68835;53.096;17.932;2023-06-22T04:52:08;101212.05;;;17.63;78.35
79370;BME280;68835;53.096;17.932;2023-06-22T04:54:37;101212.02;;;17.66;78.09
79370;BME280;68835;53.096;17.932;2023-06-22T04:57:08;101215.86;;;17.71;78.10
79370;BME280;68835;53.096;17.932;2023-06-22T04:59:38;101213.52;;;17.75;77.74
79370;BME280;68835;53.096;17.932;2023-06-22T05:02:08;101217.05;;;17.77;77.72
79370;BME280;68835;53.096;17.932;2023-06-22T05:04:35;101217.05;;;17.77;77.67
79370;BME280;68835;53.096;17.932;2023-06-22T05:07:05;101219.28;;;17.82;77.81
79370;BME280;68835;53.096;17.932;2023-06-22T05:09:33;101223.66;;;17.87;77.23
79370;BME280;68835;53.096;17.932;2023-06-22T05:12:02;101229.45;;;17.91;77.53
79370;BME280;68835;53.096;17.932;2023-06-22T05:14:29;101231.69;;;17.96;77.44
79370;BME280;68835;53.096;17.932;2023-06-22T05:16:57;101232.75;;;17.97;77.12
79370;BME280;68835;53.096;17.932;2023-06-22T05:19:30;101229.13;;;18.02;77.25
79370;BME280;68835;53.096;17.932;2023-06-22T05:22:00;101233.27;;;18.10;77.19
79370;BME280;68835;53.096;17.932;2023-06-22T05:24:27;101235.32;;;18.16;76.77
79370;BME280;68835;53.096;17.932;2023-06-22T05:26:54;101236.33;;;18.20;76.68
79370;BME280;68835;53.096;17.932;2023-06-22T05:29:22;101235.73;;;18.25;76.61
79370;BME280;68835;53.096;17.932;2023-06-22T05:31:49;101245.00;;;18.33;76.33
79370;BME280;68835;53.096;17.932;2023-06-22T05:34:17;101249.32;;;18.42;76.09
79370;BME280;68835;53.096;17.932;2023-06-22T05:36:44;101249.57;;;18.49;75.86
79370;BME280;68835;53.096;17.932;2023-06-22T05:39:12;101248.94;;;18.55;75.85
79370;BME280;68835;53.096;17.932;2023-06-22T05:41:41;101249.04;;;18.61;75.22
79370;BME280;68835;53.096;17.932;2023-06-22T05:44:09;101247.83;;;18.71;75.03
79370;BME280;68835;53.096;17.932;2023-06-22T05:46:41;101239.18;;;18.81;74.77
79370;BME280;68835;53.096;17.932;2023-06-22T05:49:13;101233.70;;;18.92;75.14
79370;BME280;68835;53.096;17.932;2023-06-22T05:51:41;101237.23;;;19.02;74.70
79370;BME280;68835;53.096;17.932;2023-06-22T05:54:08;101235.83;;;19.12;74.34
79370;BME280;68835;53.096;17.932;2023-06-22T05:56:35;101228.77;;;19.19;72.58
79370;BME280;68835;53.096;17.932;2023-06-22T05:59:03;101233.98;;;19.25;72.80
79370;BME280;68835;53.096;17.932;2023-06-22T06:01:31;101242.23;;;19.30;72.74
79370;BME280;68835;53.096;17.932;2023-06-22T06:04:05;101243.38;;;19.36;72.36
79370;BME280;68835;53.096;17.932;2023-06-22T06:06:34;101236.88;;;19.43;72.15
79370;BME280;68835;53.096;17.932;2023-06-22T06:09:04;101229.27;;;19.50;71.35
79370;BME280;68835;53.096;17.932;2023-06-22T06:11:31;101232.13;;;19.59;71.34
79370;BME280;68835;53.096;17.932;2023-06-22T06:13:59;101232.90;;;19.66;71.25
79370;BME280;68835;53.096;17.932;2023-06-22T06:16:26;101230.33;;;19.71;70.75
79370;BME280;68835;53.096;17.932;2023-06-22T06:18:53;101231.62;;;19.76;70.50
79370;BME280;68835;53.096;17.932;2023-06-22T06:21:22;101231.87;;;19.82;69.38
79370;BME280;68835;53.096;17.932;2023-06-22T06:23:50;101240.13;;;19.87;68.66
79370;BME280;68835;53.096;17.932;2023-06-22T06:26:17;101247.32;;;19.91;67.67
79370;BME280;68835;53.096;17.932;2023-06-22T06:28:45;101247.80;;;19.93;67.41
79370;BME280;68835;53.096;17.932;2023-06-22T06:31:12;101249.80;;;20.00;67.84
79370;BME280;68835;53.096;17.932;2023-06-22T06:33:44;101251.27;;;20.06;66.91
79370;BME280;68835;53.096;17.932;2023-06-22T06:36:11;101251.65;;;20.13;66.81
79370;BME280;68835;53.096;17.932;2023-06-22T06:38:38;101243.10;;;20.23;66.45
79370;BME280;68835;53.096;17.932;2023-06-22T06:41:05;101239.50;;;20.32;65.89
79370;BME280;68835;53.096;17.932;2023-06-22T06:43:32;101237.79;;;20.37;65.14
79370;BME280;68835;53.096;17.932;2023-06-22T06:45:59;101235.23;;;20.40;64.83
79370;BME280;68835;53.096;17.932;2023-06-22T06:48:27;101238.61;;;20.48;65.92
79370;BME280;68835;53.096;17.932;2023-06-22T06:50:54;101243.37;;;20.59;64.88
79370;BME280;68835;53.096;17.932;2023-06-22T06:53:21;101241.05;;;20.67;64.67
79370;BME280;68835;53.096;17.932;2023-06-22T06:55:49;101241.80;;;20.72;64.10
79370;BME280;68835;53.096;17.932;2023-06-22T06:58:16;101239.33;;;20.80;64.12
79370;BME280;68835;53.096;17.932;2023-06-22T07:00:43;101248.80;;;20.91;63.96
79370;BME280;68835;53.096;17.932;2023-06-22T07:03:10;101247.67;;;21.01;63.70
79370;BME280;68835;53.096;17.932;2023-06-22T07:05:37;101245.05;;;21.06;61.93
79370;BME280;68835;53.096;17.932;2023-06-22T07:08:05;101244.77;;;21.04;61.14
79370;BME280;68835;53.096;17.932;2023-06-22T07:10:32;101244.03;;;21.05;61.68
79370;BME280;68835;53.096;17.932;2023-06-22T07:12:59;101244.38;;;21.12;61.71
79370;BME280;68835;53.096;17.932;2023-06-22T07:15:26;101247.27;;;21.17;60.78
79370;BME280;68835;53.096;17.932;2023-06-22T07:17:54;101244.48;;;21.15;59.79
79370;BME280;68835;53.096;17.932;2023-06-22T07:20:21;101245.96;;;21.19;59.98
79370;BME280;68835;53.096;17.932;2023-06-22T07:22:48;101249.05;;;21.23;59.50
79370;BME280;68835;53.096;17.932;2023-06-22T07:25:15;101248.07;;;21.28;59.33
79370;BME280;68835;53.096;17.932;2023-06-22T07:28:01;101259.15;;;21.33;58.59
79370;BME280;68835;53.096;17.932;2023-06-22T07:30:30;101266.14;;;21.39;58.87
79370;BME280;68835;53.096;17.932;2023-06-22T07:32:58;101262.57;;;21.45;58.19
79370;BME280;68835;53.096;17.932;2023-06-22T07:35:30;101264.02;;;21.51;59.08
79370;BME280;68835;53.096;17.932;2023-06-22T07:37:58;101261.86;;;21.59;58.76
79370;BME280;68835;53.096;17.932;2023-06-22T07:40:26;101260.10;;;21.70;59.44
79370;BME280;68835;53.096;17.932;2023-06-22T07:42:53;101264.15;;;21.85;59.28
79370;BME280;68835;53.096;17.932;2023-06-22T07:45:20;101261.70;;;21.96;58.99
79370;BME280;68835;53.096;17.932;2023-06-22T07:47:47;101265.77;;;22.10;58.27
79370;BME280;68835;53.096;17.932;2023-06-22T07:50:15;101267.46;;;22.19;57.68
79370;BME280;68835;53.096;17.932;2023-06-22T07:52:42;101258.54;;;22.26;57.15
79370;BME280;68835;53.096;17.932;2023-06-22T07:55:09;101261.35;;;22.33;57.89
79370;BME280;68835;53.096;17.932;2023-06-22T07:57:36;101266.84;;;22.40;56.63
79370;BME280;68835;53.096;17.932;2023-06-22T08:00:05;101269.58;;;22.43;56.52
79370;BME280;68835;53.096;17.932;2023-06-22T08:02:45;101269.14;;;22.52;56.75
79370;BME280;68835;53.096;17.932;2023-06-22T08:05:15;101268.46;;;22.62;55.73
79370;BME280;68835;53.096;17.932;2023-06-22T08:07:42;101270.88;;;22.70;54.86
79370;BME280;68835;53.096;17.932;2023-06-22T08:10:12;101278.84;;;22.78;54.49
79370;BME280;68835;53.096;17.932;2023-06-22T08:12:40;101284.45;;;22.81;53.18
79370;BME280;68835;53.096;17.932;2023-06-22T08:15:08;101284.64;;;22.86;53.82
79370;BME280;68835;53.096;17.932;2023-06-22T08:17:37;101285.58;;;22.91;53.40
79370;BME280;68835;53.096;17.932;2023-06-22T08:20:06;101293.36;;;22.93;52.84
79370;BME280;68835;53.096;17.932;2023-06-22T08:22:37;101289.16;;;22.96;53.30
79370;BME280;68835;53.096;17.932;2023-06-22T08:25:05;101285.51;;;23.04;52.85
79370;BME280;68835;53.096;17.932;2023-06-22T08:27:33;101278.15;;;23.11;52.78
79370;BME280;68835;53.096;17.932;2023-06-22T08:30:00;101277.86;;;23.19;52.26
79370;BME280;68835;53.096;17.932;2023-06-22T08:32:28;101271.13;;;23.29;53.13
79370;BME280;68835;53.096;17.932;2023-06-22T08:34:56;101273.19;;;23.46;52.59
79370;BME280;68835;53.096;17.932;2023-06-22T08:37:24;101273.08;;;23.55;51.13
79370;BME280;68835;53.096;17.932;2023-06-22T08:39:58;101278.13;;;23.63;50.80
79370;BME280;68835;53.096;17.932;2023-06-22T08:42:26;101271.13;;;23.69;51.01
79370;BME280;68835;53.096;17.932;2023-06-22T08:44:53;101267.98;;;23.78;51.03
79370;BME280;68835;53.096;17.932;2023-06-22T08:47:20;101265.05;;;23.94;51.07
79370;BME280;68835;53.096;17.932;2023-06-22T08:49:48;101267.70;;;24.09;50.74
79370;BME280;68835;53.096;17.932;2023-06-22T08:52:17;101272.45;;;24.26;50.99
79370;BME280;68835;53.096;17.932;2023-06-22T08:54:46;101267.45;;;24.39;50.69
79370;BME280;68835;53.096;17.932;2023-06-22T08:57:13;101264.95;;;24.53;50.33
79370;BME280;68835;53.096;17.932;2023-06-22T08:59:41;101271.59;;;24.62;48.91
79370;BME280;68835;53.096;17.932;2023-06-22T09:02:09;101267.73;;;24.60;49.75
79370;BME280;68835;53.096;17.932;2023-06-22T09:04:36;101267.97;;;24.68;49.43
79370;BME280;68835;53.096;17.932;2023-06-22T09:07:04;101268.27;;;24.73;48.81
79370;BME280;68835;53.096;17.932;2023-06-22T09:09:31;101265.44;;;24.77;49.14
79370;BME280;68835;53.096;17.932;2023-06-22T09:11:58;101269.47;;;24.87;49.49
79370;BME280;68835;53.096;17.932;2023-06-22T09:14:25;101269.88;;;24.99;48.69
79370;BME280;68835;53.096;17.932;2023-06-22T09:16:52;101261.08;;;25.09;48.04
79370;BME280;68835;53.096;17.932;2023-06-22T09:19:20;101256.52;;;25.15;45.82
79370;BME280;68835;53.096;17.932;2023-06-22T09:21:47;101253.05;;;25.13;46.76
79370;BME280;68835;53.096;17.932;2023-06-22T09:24:14;101255.33;;;25.22;46.88
79370;BME280;68835;53.096;17.932;2023-06-22T09:26:41;101251.52;;;25.40;47.09
79370;BME280;68835;53.096;17.932;2023-06-22T09:29:09;101241.17;;;25.55;45.97
79370;BME280;68835;53.096;17.932;2023-06-22T09:31:36;101244.05;;;25.67;45.20
79370;BME280;68835;53.096;17.932;2023-06-22T09:34:03;101240.37;;;25.77;44.93
79370;BME280;68835;53.096;17.932;2023-06-22T09:36:31;101243.68;;;25.92;45.09
79370;BME280;68835;53.096;17.932;2023-06-22T09:38:58;101246.39;;;26.14;44.50
79370;BME280;68835;53.096;17.932;2023-06-22T09:41:26;101248.61;;;26.39;44.25
79370;BME280;68835;53.096;17.932;2023-06-22T09:43:53;101242.04;;;26.53;43.48
79370;BME280;68835;53.096;17.932;2023-06-22T09:46:20;101245.47;;;26.60;42.28
79370;BME280;68835;53.096;17.932;2023-06-22T09:48:49;101242.61;;;26.60;41.93
79370;BME280;68835;53.096;17.932;2023-06-22T09:51:16;101241.90;;;26.64;42.86
79370;BME280;68835;53.096;17.932;2023-06-22T09:53:43;101241.74;;;26.85;41.97
79370;BME280;68835;53.096;17.932;2023-06-22T09:56:11;101242.36;;;26.97;41.72
79370;BME280;68835;53.096;17.932;2023-06-22T09:58:42;101243.95;;;27.12;41.17
79370;BME280;68835;53.096;17.932;2023-06-22T10:01:09;101246.58;;;27.28;40.55
79370;BME280;68835;53.096;17.932;2023-06-22T10:03:37;101240.81;;;27.49;40.86
79370;BME280;68835;53.096;17.932;2023-06-22T10:06:05;101239.16;;;27.74;40.80
79370;BME280;68835;53.096;17.932;2023-06-22T10:08:32;101240.00;;;28.01;39.00
79370;BME280;68835;53.096;17.932;2023-06-22T10:10:59;101238.90;;;28.11;38.07
79370;BME280;68835;53.096;17.932;2023-06-22T10:13:26;101235.80;;;28.15;38.63
79370;BME280;68835;53.096;17.932;2023-06-22T10:15:53;101238.63;;;28.39;38.12
79370;BME280;68835;53.096;17.932;2023-06-22T10:18:21;101237.67;;;28.68;38.08
79370;BME280;68835;53.096;17.932;2023-06-22T10:20:50;101230.55;;;29.13;38.12
79370;BME280;68835;53.096;17.932;2023-06-22T10:23:20;101226.66;;;29.42;36.35
79370;BME280;68835;53.096;17.932;2023-06-22T10:25:48;101224.19;;;29.50;35.55
79370;BME280;68835;53.096;17.932;2023-06-22T10:28:15;101232.30;;;29.46;35.51
79370;BME280;68835;53.096;17.932;2023-06-22T10:30:44;101228.56;;;29.55;35.54
79370;BME280;68835;53.096;17.932;2023-06-22T10:33:11;101227.19;;;29.77;35.30
79370;BME280;68835;53.096;17.932;2023-06-22T10:35:39;101228.45;;;30.11;35.51
79370;BME280;68835;53.096;17.932;2023-06-22T10:38:06;101232.56;;;30.46;35.25
79370;BME280;68835;53.096;17.932;2023-06-22T10:40:34;101235.45;;;30.79;33.84
79370;BME280;68835;53.096;17.932;2023-06-22T10:43:02;101225.57;;;31.12;34.08
79370;BME280;68835;53.096;17.932;2023-06-22T10:45:29;101226.29;;;31.52;32.83
79370;BME280;68835;53.096;17.932;2023-06-22T10:47:56;101226.30;;;31.67;32.63
79370;BME280;68835;53.096;17.932;2023-06-22T10:50:24;101226.95;;;31.76;31.11
79370;BME280;68835;53.096;17.932;2023-06-22T10:52:53;101219.69;;;31.69;30.95
79370;BME280;68835;53.096;17.932;2023-06-22T10:55:20;101218.33;;;31.83;31.15
79370;BME280;68835;53.096;17.932;2023-06-22T10:57:48;101215.81;;;31.90;29.63
79370;BME280;68835;53.096;17.932;2023-06-22T11:00:16;101219.04;;;32.01;30.52
79370;BME280;68835;53.096;17.932;2023-06-22T11:02:44;101217.98;;;32.47;30.98
79370;BME280;68835;53.096;17.932;2023-06-22T11:05:11;101220.64;;;32.87;29.73
79370;BME280;68835;53.096;17.932;2023-06-22T11:07:42;101217.09;;;33.17;29.98
79370;BME280;68835;53.096;17.932;2023-06-22T11:10:12;101221.64;;;33.37;28.22
79370;BME280;68835;53.096;17.932;2023-06-22T11:12:39;101219.30;;;33.25;27.98
79370;BME280;68835;53.096;17.932;2023-06-22T11:15:07;101225.83;;;33.28;27.25
79370;BME280;68835;53.096;17.932;2023-06-22T11:17:35;101225.60;;;33.21;27.72
79370;BME280;68835;53.096;17.932;2023-06-22T11:20:02;101224.99;;;33.38;27.75
79370;BME280;68835;53.096;17.932;2023-06-22T11:22:40;101219.09;;;33.72;28.13
79370;BME280;68835;53.096;17.932;2023-06-22T11:25:08;101211.23;;;34.09;27.65
79370;BME280;68835;53.096;17.932;2023-06-22T11:27:36;101209.67;;;34.23;26.36
79370;BME280;68835;53.096;17.932;2023-06-22T11:30:03;101213.35;;;34.05;26.08
79370;BME280;68835;53.096;17.932;2023-06-22T11:32:31;101214.30;;;33.89;26.48
79370;BME280;68835;53.096;17.932;2023-06-22T11:34:58;101219.20;;;33.78;25.66
79370;BME280;68835;53.096;17.932;2023-06-22T11:37:25;101217.55;;;33.62;25.17
79370;BME280;68835;53.096;17.932;2023-06-22T11:39:52;101216.98;;;33.67;26.41
79370;BME280;68835;53.096;17.932;2023-06-22T11:42:21;101215.50;;;34.06;26.46
79370;BME280;68835;53.096;17.932;2023-06-22T11:44:50;101214.66;;;34.55;26.19
79370;BME280;68835;53.096;17.932;2023-06-22T11:47:17;101220.16;;;34.90;25.31
79370;BME280;68835;53.096;17.932;2023-06-22T11:49:45;101215.40;;;35.11;24.99
79370;BME280;68835;53.096;17.932;2023-06-22T11:52:12;101216.59;;;35.29;24.62
79370;BME280;68835;53.096;17.932;2023-06-22T11:54:39;101213.79;;;35.28;22.92
79370;BME280;68835;53.096;17.932;2023-06-22T11:57:06;101206.84;;;35.16;22.69
79370;BME280;68835;53.096;17.932;2023-06-22T11:59:34;101209.61;;;35.15;22.84
79370;BME280;68835;53.096;17.932;2023-06-22T12:02:01;101200.69;;;35.00;22.89
79370;BME280;68835;53.096;17.932;2023-06-22T12:04:28;101197.81;;;35.15;23.45
79370;BME280;68835;53.096;17.932;2023-06-22T12:06:55;101190.40;;;35.46;23.31
79370;BME280;68835;53.096;17.932;2023-06-22T12:09:23;101191.39;;;35.60;23.31
79370;BME280;68835;53.096;17.932;2023-06-22T12:11:50;101188.86;;;35.90;23.17
79370;BME280;68835;53.096;17.932;2023-06-22T12:14:17;101185.71;;;36.41;22.55
79370;BME280;68835;53.096;17.932;2023-06-22T12:16:45;101185.71;;;36.88;21.95
79370;BME280;68835;53.096;17.932;2023-06-22T12:19:12;101189.01;;;37.19;20.96
79370;BME280;68835;53.096;17.932;2023-06-22T12:21:39;101186.33;;;36.81;19.51
79370;BME280;68835;53.096;17.932;2023-06-22T12:24:07;101184.04;;;36.41;20.11
79370;BME280;68835;53.096;17.932;2023-06-22T12:26:34;101183.73;;;36.41;21.15
79370;BME280;68835;53.096;17.932;2023-06-22T12:29:02;101177.95;;;36.56;20.18
79370;BME280;68835;53.096;17.932;2023-06-22T12:31:29;101177.38;;;36.60;20.23
79370;BME280;68835;53.096;17.932;2023-06-22T12:33:56;101174.05;;;36.78;20.61
79370;BME280;68835;53.096;17.932;2023-06-22T12:36:23;101174.83;;;37.31;20.88
79370;BME280;68835;53.096;17.932;2023-06-22T12:38:51;101174.06;;;37.79;20.64
79370;BME280;68835;53.096;17.932;2023-06-22T12:41:18;101166.59;;;38.19;20.13
79370;BME280;68835;53.096;17.932;2023-06-22T12:43:46;101165.11;;;38.25;19.54
79370;BME280;68835;53.096;17.932;2023-06-22T12:46:13;101156.71;;;38.23;19.65
79370;BME280;68835;53.096;17.932;2023-06-22T12:48:40;101153.61;;;38.37;19.81